createdAt,value
2018-01-31T01:52:20.957Z,1013.70
2018-01-31T01:52:43.612Z,1013.70
2018-01-31T01:53:43.627Z,1013.65
2018-01-31T01:54:43.631Z,1013.63
2018-01-31T01:55:43.636Z,1013.61
2018-01-31T01:56:43.654Z,1013.58
2018-01-31T01:57:43.653Z,1013.57
2018-01-31T01:58:43.673Z,1013.58
2018-01-31T01:59:43.687Z,1013.60
2018-01-31T02:00:43.691Z,1013.56
2018-01-31T02:01:43.705Z,1013.54
2018-01-31T02:02:43.722Z,1013.49
2018-01-31T02:03:43.734Z,1013.47
2018-01-31T02:04:43.746Z,1013.46
2018-01-31T02:05:43.750Z,1013.44
2018-01-31T02:06:43.765Z,1013.45
2018-01-31T02:07:43.778Z,1013.38
2018-01-31T02:08:43.786Z,1013.35
2018-01-31T02:09:43.804Z,1013.35
2018-01-31T02:10:43.809Z,1013.32
2018-01-31T02:11:43.814Z,1013.38
2018-01-31T02:12:43.845Z,1013.26
2018-01-31T02:13:43.846Z,1013.28
2018-01-31T02:14:43.855Z,1013.31
2018-01-31T02:15:43.867Z,1013.26
2018-01-31T02:16:43.884Z,1013.22
2018-01-31T02:17:43.886Z,1013.18
2018-01-31T02:18:43.906Z,1013.16
2018-01-31T02:19:43.914Z,1013.16
2018-01-31T02:20:43.931Z,1013.10
2018-01-31T02:21:43.930Z,1013.09
2018-01-31T02:22:43.948Z,1013.04
2018-01-31T02:23:43.964Z,1013.06
2018-01-31T02:24:43.974Z,1013.01
2018-01-31T02:25:43.984Z,1012.96
2018-01-31T02:26:43.989Z,1012.98
2018-01-31T02:27:43.994Z,1012.95
2018-01-31T02:28:44.028Z,1012.89
2018-01-31T02:29:44.026Z,1012.83
2018-01-31T02:30:44.042Z,1012.84
2018-01-31T02:31:44.049Z,1012.82
2018-01-31T02:32:44.053Z,1012.77
2018-01-31T02:33:44.077Z,1012.78
2018-01-31T02:34:44.089Z,1012.74
2018-01-31T02:35:44.092Z,1012.76
2018-01-31T02:36:44.110Z,1012.75
2018-01-31T02:37:44.112Z,1012.76
2018-01-31T02:38:44.122Z,1012.73
2018-01-31T02:39:44.134Z,1012.71
2018-01-31T02:40:44.151Z,1012.72
2018-01-31T02:41:44.162Z,1012.65
2018-01-31T02:42:44.172Z,1012.63
2018-01-31T02:43:44.181Z,1012.64
2018-01-31T02:44:44.190Z,1012.63
2018-01-31T02:45:44.191Z,1012.58
2018-01-31T02:46:44.213Z,1012.52
2018-01-31T02:47:44.230Z,1012.50
2018-01-31T02:48:44.231Z,1012.47
2018-01-31T02:49:44.246Z,1012.47
2018-01-31T02:50:44.261Z,1012.42
2018-01-31T02:51:44.263Z,1012.36
2018-01-31T02:52:44.275Z,1012.34
2018-01-31T02:53:44.281Z,1012.33
2018-01-31T02:54:44.312Z,1012.33
2018-01-31T02:55:44.311Z,1012.31
2018-01-31T02:56:44.314Z,1012.32
2018-01-31T02:57:44.327Z,1012.26
2018-01-31T02:58:44.349Z,1012.27
2018-01-31T02:59:44.340Z,1012.23
2018-01-31T03:00:44.363Z,1012.20
2018-01-31T03:01:44.374Z,1012.18
2018-01-31T03:02:44.383Z,1012.17
2018-01-31T03:03:44.409Z,1012.17
2018-01-31T03:04:44.410Z,1012.16
2018-01-31T03:05:44.412Z,1012.15
2018-01-31T03:06:44.430Z,1012.09
2018-01-31T03:07:44.441Z,1012.12
2018-01-31T03:08:44.451Z,1012.16
2018-01-31T03:09:44.465Z,1012.10
2018-01-31T03:10:44.466Z,1012.12
2018-01-31T03:11:44.479Z,1012.11
2018-01-31T03:12:44.506Z,1012.18
2018-01-31T03:13:44.499Z,1012.16
2018-01-31T03:14:44.505Z,1012.16
2018-01-31T03:15:44.511Z,1012.21
2018-01-31T03:16:44.534Z,1012.16
2018-01-31T03:17:44.539Z,1012.15
2018-01-31T03:18:44.551Z,1012.14
2018-01-31T03:19:44.566Z,1012.13
2018-01-31T03:20:44.575Z,1012.11
2018-01-31T03:21:44.593Z,1012.11
2018-01-31T03:22:44.583Z,1012.09
2018-01-31T03:23:44.595Z,1012.05
2018-01-31T03:24:44.603Z,1012.06
2018-01-31T03:25:44.628Z,1012.00
2018-01-31T03:26:44.645Z,1011.97
2018-01-31T03:27:44.643Z,1011.95
2018-01-31T03:28:44.656Z,1011.93
2018-01-31T03:29:44.659Z,1011.92
2018-01-31T03:30:44.683Z,1011.91
2018-01-31T03:31:44.679Z,1011.89
2018-01-31T03:32:44.692Z,1011.89
2018-01-31T03:33:44.700Z,1011.83
2018-01-31T03:34:44.724Z,1011.78
2018-01-31T03:35:44.721Z,1011.74
2018-01-31T03:36:44.744Z,1011.74
2018-01-31T03:37:44.745Z,1011.65
2018-01-31T03:38:44.762Z,1011.68
2018-01-31T03:39:44.766Z,1011.67
2018-01-31T03:40:44.774Z,1011.62
2018-01-31T03:41:44.790Z,1011.63
2018-01-31T03:42:44.795Z,1011.62
2018-01-31T03:43:44.808Z,1011.65
2018-01-31T03:44:44.818Z,1011.61
2018-01-31T03:45:44.814Z,1011.56
2018-01-31T03:46:44.838Z,1011.57
2018-01-31T03:47:44.850Z,1011.51
2018-01-31T03:48:44.854Z,1011.47
2018-01-31T03:49:44.871Z,1011.40
2018-01-31T03:50:44.878Z,1011.39
2018-01-31T03:51:44.884Z,1011.33
2018-01-31T03:52:44.907Z,1011.32
2018-01-31T03:53:44.896Z,1011.28
2018-01-31T03:54:44.906Z,1011.27
2018-01-31T03:55:44.918Z,1011.25
2018-01-31T03:56:44.927Z,1011.22
2018-01-31T03:57:44.943Z,1011.24
2018-01-31T03:58:44.960Z,1011.28
2018-01-31T03:59:44.963Z,1011.27
2018-01-31T04:00:44.975Z,1011.29
2018-01-31T04:01:44.983Z,1011.32
2018-01-31T04:02:44.995Z,1011.32
2018-01-31T04:03:45.003Z,1011.30
2018-01-31T04:04:45.009Z,1011.25
2018-01-31T04:05:45.021Z,1011.24
2018-01-31T04:06:45.033Z,1011.30
2018-01-31T04:07:45.038Z,1011.27
2018-01-31T04:08:45.050Z,1011.26
2018-01-31T04:09:45.054Z,1011.26
2018-01-31T04:10:45.087Z,1011.29
2018-01-31T04:11:45.087Z,1011.29
2018-01-31T04:12:45.096Z,1011.25
2018-01-31T04:13:45.103Z,1011.27
2018-01-31T04:14:45.113Z,1011.23
2018-01-31T04:15:45.116Z,1011.22
2018-01-31T04:16:45.139Z,1011.19
2018-01-31T04:17:45.137Z,1011.18
2018-01-31T04:18:45.146Z,1011.14
2018-01-31T04:19:45.163Z,1011.11
2018-01-31T04:20:45.174Z,1011.11
2018-01-31T04:21:45.179Z,1011.09
2018-01-31T04:22:45.202Z,1011.10
2018-01-31T04:23:45.200Z,1011.03
2018-01-31T04:24:45.217Z,1010.99
2018-01-31T04:25:45.220Z,1010.96
2018-01-31T04:26:45.231Z,1010.94
2018-01-31T04:27:45.243Z,1010.91
2018-01-31T04:28:45.245Z,1010.86
2018-01-31T04:29:45.258Z,1010.83
2018-01-31T04:30:45.273Z,1010.81
2018-01-31T04:31:45.272Z,1010.85
2018-01-31T04:32:45.288Z,1010.77
2018-01-31T04:33:45.292Z,1010.77
2018-01-31T04:34:45.313Z,1010.72
2018-01-31T04:35:45.326Z,1010.63
2018-01-31T04:36:45.339Z,1010.63
2018-01-31T04:37:45.357Z,1010.63
2018-01-31T04:38:45.355Z,1010.60
2018-01-31T04:39:45.356Z,1010.55
2018-01-31T04:40:45.374Z,1010.50
2018-01-31T04:41:45.373Z,1010.47
2018-01-31T04:42:45.388Z,1010.46
2018-01-31T04:43:45.411Z,1010.40
2018-01-31T04:44:45.420Z,1010.38
2018-01-31T04:45:45.428Z,1010.36
2018-01-31T04:46:45.443Z,1010.34
2018-01-31T04:47:45.445Z,1010.28
2018-01-31T04:48:45.458Z,1010.31
2018-01-31T04:49:45.459Z,1010.30
2018-01-31T04:50:45.471Z,1010.28
2018-01-31T04:51:45.479Z,1010.27
2018-01-31T04:52:45.497Z,1010.21
2018-01-31T04:53:45.516Z,1010.23
2018-01-31T04:54:45.521Z,1010.19
2018-01-31T04:55:45.524Z,1010.18
2018-01-31T04:56:45.547Z,1010.19
2018-01-31T04:57:45.543Z,1010.17
2018-01-31T04:58:45.556Z,1010.13
2018-01-31T04:59:45.577Z,1010.17
2018-01-31T05:00:45.583Z,1010.06
2018-01-31T05:01:45.593Z,1010.05
2018-01-31T05:02:45.602Z,1010.04
2018-01-31T05:03:45.612Z,1009.97
2018-01-31T05:04:45.625Z,1009.96
2018-01-31T05:05:45.627Z,1009.94
2018-01-31T05:06:45.636Z,1009.87
2018-01-31T05:07:45.660Z,1009.80
2018-01-31T05:08:45.668Z,1009.79
2018-01-31T05:09:45.677Z,1009.65
2018-01-31T05:10:45.690Z,1009.65
2018-01-31T05:11:45.696Z,1009.59
2018-01-31T05:12:45.709Z,1009.55
2018-01-31T05:13:45.737Z,1009.52
2018-01-31T05:23:42.559Z,1009.22
2018-01-31T05:24:29.621Z,1009.16
2018-01-31T05:25:23.360Z,1009.12
2018-01-31T05:26:23.383Z,1009.11
2018-01-31T05:27:23.401Z,1009.10
2018-01-31T05:28:23.410Z,1009.10
2018-01-31T05:29:23.446Z,1009.11
2018-01-31T05:30:23.428Z,1009.03
2018-01-31T05:31:23.449Z,1009.05
2018-01-31T05:32:23.757Z,1008.97
2018-01-31T05:33:23.466Z,1008.96
2018-01-31T05:34:23.476Z,1008.96
2018-01-31T05:35:23.485Z,1008.90
2018-01-31T05:36:23.493Z,1008.87
2018-01-31T05:37:23.804Z,1008.83
2018-01-31T05:38:23.523Z,1008.83
2018-01-31T05:39:23.532Z,1008.81
2018-01-31T05:40:23.541Z,1008.85
2018-01-31T05:41:23.552Z,1008.87
2018-01-31T05:42:23.559Z,1008.94
2018-01-31T05:43:23.580Z,1008.93
2018-01-31T05:44:23.591Z,1008.95
2018-01-31T05:45:23.600Z,1008.85
2018-01-31T05:46:23.607Z,1008.82
2018-01-31T05:47:23.616Z,1008.75
2018-01-31T05:48:23.626Z,1008.74
2018-01-31T05:49:23.635Z,1008.72
2018-01-31T05:50:23.657Z,1008.73
2018-01-31T05:51:23.669Z,1008.64
2018-01-31T05:52:23.673Z,1008.66
2018-01-31T05:53:23.687Z,1008.62
2018-01-31T05:54:23.690Z,1008.64
2018-01-31T05:55:23.712Z,1008.55
2018-01-31T05:56:23.725Z,1008.55
2018-01-31T05:57:23.730Z,1008.54
2018-01-31T05:58:23.743Z,1008.50
2018-01-31T05:59:23.748Z,1008.48
2018-01-31T06:00:23.757Z,1008.51
2018-01-31T06:01:23.779Z,1008.45
2018-01-31T06:02:23.788Z,1008.43
2018-01-31T06:03:23.798Z,1008.34
2018-01-31T06:04:23.805Z,1008.39
2018-01-31T06:05:23.815Z,1008.31
2018-01-31T06:06:23.824Z,1008.26
2018-01-31T06:07:23.844Z,1008.25
2018-01-31T06:08:23.855Z,1008.31
2018-01-31T06:09:23.862Z,1008.26
2018-01-31T06:10:23.871Z,1008.26
2018-01-31T06:11:23.881Z,1008.17
2018-01-31T06:12:23.900Z,1008.10
2018-01-31T06:13:23.909Z,1008.06
2018-01-31T06:14:23.919Z,1008.05
2018-01-31T06:15:23.928Z,1008.06
2018-01-31T06:16:23.937Z,1008.00
2018-01-31T06:17:23.957Z,1008.03
2018-01-31T06:18:23.967Z,1007.96
2018-01-31T06:19:23.977Z,1007.93
2018-01-31T06:20:23.986Z,1007.95
2018-01-31T06:21:23.993Z,1007.98
2018-01-31T06:22:24.015Z,1008.00
2018-01-31T06:23:24.025Z,1007.96
2018-01-31T06:24:24.032Z,1007.95
2018-01-31T06:25:24.041Z,1007.89
2018-01-31T06:26:24.050Z,1007.87
2018-01-31T06:27:24.071Z,1007.87
2018-01-31T06:28:24.081Z,1007.86
2018-01-31T06:29:24.091Z,1007.81
2018-01-31T06:30:24.098Z,1007.76
2018-01-31T06:31:24.109Z,1007.72
2018-01-31T06:32:24.430Z,1007.74
2018-01-31T06:33:24.137Z,1007.67
2018-01-31T06:34:24.148Z,1007.64
2018-01-31T06:35:24.163Z,1007.63
2018-01-31T06:36:24.164Z,1007.64
2018-01-31T06:37:24.537Z,1007.61
2018-01-31T06:38:24.200Z,1007.56
2018-01-31T06:39:24.205Z,1007.62
2018-01-31T06:40:24.212Z,1007.59
2018-01-31T06:41:24.234Z,1007.57
2018-01-31T06:42:24.242Z,1007.56
2018-01-31T06:43:24.252Z,1007.56
2018-01-31T06:44:24.272Z,1007.57
2018-01-31T06:45:24.271Z,1007.50
2018-01-31T06:46:24.292Z,1007.52
2018-01-31T06:47:24.300Z,1007.48
2018-01-31T06:48:24.309Z,1007.48
2018-01-31T06:49:24.317Z,1007.44
2018-01-31T06:50:24.338Z,1007.43
2018-01-31T06:51:24.349Z,1007.42
2018-01-31T06:52:24.360Z,1007.47
2018-01-31T06:53:24.365Z,1007.44
2018-01-31T06:54:24.376Z,1007.38
2018-01-31T06:55:24.397Z,1007.41
2018-01-31T06:56:24.406Z,1007.35
2018-01-31T06:57:24.426Z,1007.30
2018-01-31T06:58:24.423Z,1007.26
2018-01-31T06:59:24.444Z,1007.25
2018-01-31T07:00:24.453Z,1007.17
2018-01-31T07:01:24.463Z,1007.17
2018-01-31T07:02:24.520Z,1007.10
2018-01-31T07:03:24.492Z,1007.04
2018-01-31T07:04:24.501Z,1006.99
2018-01-31T07:05:24.509Z,1006.97
2018-01-31T07:06:24.519Z,1007.00
2018-01-31T07:07:24.540Z,1006.97
2018-01-31T07:08:24.550Z,1006.93
2018-01-31T07:09:24.558Z,1006.92
2018-01-31T07:10:24.566Z,1006.91
2018-01-31T07:11:24.590Z,1006.85
2018-01-31T07:12:24.598Z,1006.75
2018-01-31T07:13:24.597Z,1006.78
2018-01-31T07:14:24.601Z,1006.76
2018-01-31T07:15:24.618Z,1006.81
2018-01-31T07:16:24.636Z,1006.85
2018-01-31T07:17:24.644Z,1006.82
2018-01-31T07:18:24.655Z,1006.83
2018-01-31T07:19:24.660Z,1006.76
2018-01-31T07:20:24.681Z,1006.68
2018-01-31T07:21:24.693Z,1006.67
2018-01-31T07:22:24.697Z,1006.65
2018-01-31T07:23:24.709Z,1006.60
2018-01-31T07:24:24.732Z,1006.58
2018-01-31T07:25:24.740Z,1006.53
2018-01-31T07:26:24.748Z,1006.51
2018-01-31T07:27:24.755Z,1006.49
2018-01-31T07:28:24.778Z,1006.44
2018-01-31T07:29:24.789Z,1006.42
2018-01-31T07:30:24.797Z,1006.35
2018-01-31T07:31:24.803Z,1006.35
2018-01-31T07:32:24.821Z,1006.34
2018-01-31T07:33:24.835Z,1006.31
2018-01-31T07:34:24.839Z,1006.32
2018-01-31T07:35:24.863Z,1006.34
2018-01-31T07:36:24.876Z,1006.28
2018-01-31T07:37:24.876Z,1006.23
2018-01-31T07:38:24.893Z,1006.20
2018-01-31T07:39:24.909Z,1006.25
2018-01-31T07:40:24.922Z,1006.26
2018-01-31T07:41:24.933Z,1006.18
2018-01-31T07:42:24.935Z,1006.19
2018-01-31T07:43:24.977Z,1006.12
2018-01-31T07:44:24.975Z,1006.14
2018-01-31T07:45:24.981Z,1006.03
2018-01-31T07:46:25.002Z,1006.02
2018-01-31T07:47:25.009Z,1005.97
2018-01-31T07:48:25.013Z,1005.96
2018-01-31T07:49:25.029Z,1005.91
2018-01-31T07:50:25.049Z,1005.92
2018-01-31T07:51:25.061Z,1005.87
2018-01-31T07:52:25.071Z,1005.75
2018-01-31T07:53:25.084Z,1005.78
2018-01-31T07:54:25.094Z,1005.69
2018-01-31T07:55:25.107Z,1005.72
2018-01-31T07:56:25.109Z,1005.72
2018-01-31T07:57:25.140Z,1005.65
2018-01-31T07:58:25.141Z,1005.64
2018-01-31T07:59:25.154Z,1005.65
2018-01-31T08:00:25.179Z,1005.65
2018-01-31T08:01:25.190Z,1005.60
2018-01-31T08:02:25.194Z,1005.67
2018-01-31T08:03:25.214Z,1005.67
2018-01-31T08:04:25.222Z,1005.67
2018-01-31T08:05:25.233Z,1005.63
2018-01-31T08:06:25.253Z,1005.56
2018-01-31T08:07:25.261Z,1005.56
2018-01-31T08:08:25.269Z,1005.61
2018-01-31T08:09:25.286Z,1005.59
2018-01-31T08:10:25.302Z,1005.57
2018-01-31T08:11:25.311Z,1005.55
2018-01-31T08:12:25.328Z,1005.59
2018-01-31T08:13:25.344Z,1005.48
2018-01-31T08:14:25.383Z,1005.45
2018-01-31T08:15:25.374Z,1005.45
2018-01-31T08:16:25.380Z,1005.39
2018-01-31T08:17:25.387Z,1005.39
2018-01-31T08:18:25.414Z,1005.34
2018-01-31T08:19:25.414Z,1005.32
2018-01-31T08:20:25.424Z,1005.36
2018-01-31T08:21:25.448Z,1005.30
2018-01-31T08:22:25.455Z,1005.26
2018-01-31T08:23:25.480Z,1005.22
2018-01-31T08:24:25.488Z,1005.16
2018-01-31T08:25:25.494Z,1005.13
2018-01-31T08:26:25.517Z,1005.14
2018-01-31T08:27:25.528Z,1005.14
2018-01-31T08:28:25.537Z,1005.08
2018-01-31T08:29:25.556Z,1005.05
2018-01-31T08:30:25.563Z,1005.03
2018-01-31T08:31:25.589Z,1005.02
2018-01-31T08:32:25.600Z,1005.03
2018-01-31T08:33:25.605Z,1005.02
2018-01-31T08:34:25.627Z,1004.93
2018-01-31T08:35:25.632Z,1004.94
2018-01-31T08:36:25.642Z,1004.92
2018-01-31T08:37:25.666Z,1004.92
2018-01-31T08:38:25.671Z,1004.88
2018-01-31T08:39:25.702Z,1004.83
2018-01-31T08:40:25.707Z,1004.78
2018-01-31T08:41:25.722Z,1004.79
2018-01-31T08:42:25.741Z,1004.76
2018-01-31T08:43:25.739Z,1004.70
2018-01-31T08:44:25.760Z,1004.63
2018-01-31T08:45:25.773Z,1004.63
2018-01-31T08:46:25.781Z,1004.60
2018-01-31T08:47:25.808Z,1004.62
2018-01-31T08:48:25.815Z,1004.60
2018-01-31T08:49:25.832Z,1004.53
2018-01-31T08:50:25.880Z,1004.51
2018-01-31T08:51:25.849Z,1004.48
2018-01-31T08:52:25.873Z,1004.46
2018-01-31T08:53:25.884Z,1004.43
2018-01-31T08:54:25.906Z,1004.37
2018-01-31T08:55:25.913Z,1004.36
2018-01-31T08:56:25.921Z,1004.33
2018-01-31T08:57:25.938Z,1004.31
2018-01-31T08:58:25.954Z,1004.26
2018-01-31T08:59:25.960Z,1004.20
2018-01-31T09:00:25.980Z,1004.21
2018-01-31T09:01:25.997Z,1004.21
2018-01-31T09:02:26.009Z,1004.16
2018-01-31T09:03:26.022Z,1004.09
2018-01-31T09:04:26.043Z,1004.09
2018-01-31T09:05:26.049Z,1004.03
2018-01-31T09:06:26.064Z,1004.07
2018-01-31T09:07:26.083Z,1004.00
2018-01-31T09:08:26.088Z,1004.02
2018-01-31T09:09:26.101Z,1003.96
2018-01-31T09:10:26.118Z,1003.96
2018-01-31T09:11:26.133Z,1003.93
2018-01-31T09:12:26.157Z,1003.92
2018-01-31T09:13:26.160Z,1003.90
2018-01-31T09:14:26.170Z,1003.95
2018-01-31T09:15:26.186Z,1003.90
2018-01-31T09:16:26.197Z,1003.90
2018-01-31T09:17:26.239Z,1003.83
2018-01-31T09:18:26.228Z,1003.85
2018-01-31T09:19:26.254Z,1003.90
2018-01-31T09:20:26.275Z,1003.83
2018-01-31T09:21:26.269Z,1003.86
2018-01-31T09:22:26.292Z,1003.62
2018-01-31T09:23:26.296Z,1003.81
2018-01-31T09:24:26.318Z,1003.84
2018-01-31T09:25:26.333Z,1003.82
2018-01-31T09:26:26.333Z,1003.70
2018-01-31T09:27:26.359Z,1003.64
2018-01-31T09:28:26.371Z,1003.72
2018-01-31T09:29:26.386Z,1003.67
2018-01-31T09:30:26.404Z,1003.54
2018-01-31T09:31:26.421Z,1003.65
2018-01-31T09:32:26.431Z,1003.58
2018-01-31T09:33:26.441Z,1003.58
2018-01-31T09:34:26.454Z,1003.59
2018-01-31T09:35:26.474Z,1003.48
2018-01-31T09:36:26.477Z,1003.53
2018-01-31T09:37:26.501Z,1003.52
2018-01-31T09:38:26.510Z,1003.55
2018-01-31T09:39:26.529Z,1003.63
2018-01-31T09:40:26.538Z,1003.44
2018-01-31T09:41:26.596Z,1003.41
2018-01-31T09:42:26.571Z,1003.44
2018-01-31T09:43:26.575Z,1003.41
2018-01-31T09:44:26.609Z,1003.43
2018-01-31T09:45:26.612Z,1003.43
2018-01-31T09:46:26.612Z,1003.42
2018-01-31T09:47:26.640Z,1003.43
2018-01-31T09:48:26.646Z,1003.36
2018-01-31T09:49:26.664Z,1003.30
2018-01-31T09:50:26.680Z,1003.21
2018-01-31T09:51:26.686Z,1003.20
2018-01-31T09:52:27.010Z,1003.21
2018-01-31T09:53:26.751Z,1003.15
2018-01-31T09:54:26.736Z,1003.20
2018-01-31T09:55:26.749Z,1003.16
2018-01-31T09:56:26.757Z,1003.12
2018-01-31T09:57:26.775Z,1003.09
2018-01-31T09:58:26.794Z,1003.04
2018-01-31T09:59:26.806Z,1003.05
2018-01-31T10:00:26.816Z,1003.06
2018-01-31T10:01:26.827Z,1003.00
2018-01-31T10:02:26.844Z,1003.02
2018-01-31T10:03:26.856Z,1002.99
2018-01-31T10:04:26.878Z,1002.97
2018-01-31T10:05:26.883Z,1002.98
2018-01-31T10:06:26.901Z,1003.00
2018-01-31T10:07:26.912Z,1003.00
2018-01-31T10:08:26.920Z,1002.99
2018-01-31T10:09:26.952Z,1003.02
2018-01-31T10:10:26.950Z,1002.89
2018-01-31T10:11:26.969Z,1002.85
2018-01-31T10:12:26.990Z,1002.94
2018-01-31T10:13:26.990Z,1002.82
2018-01-31T10:14:27.021Z,1002.91
2018-01-31T10:15:27.023Z,1002.86
2018-01-31T10:16:27.072Z,1002.85
2018-01-31T10:17:27.057Z,1002.79
2018-01-31T10:18:27.060Z,1002.79
2018-01-31T10:19:27.086Z,1002.73
2018-01-31T10:20:27.093Z,1002.71
2018-01-31T10:21:27.110Z,1002.70
2018-01-31T10:22:27.130Z,1002.63
2018-01-31T10:23:27.132Z,1002.62
2018-01-31T10:24:27.157Z,1002.64
2018-01-31T10:25:27.168Z,1002.62
2018-01-31T10:26:27.182Z,1002.59
2018-01-31T10:27:27.195Z,1002.53
2018-01-31T10:28:27.209Z,1002.49
2018-01-31T10:29:27.223Z,1002.48
2018-01-31T10:30:27.233Z,1002.47
2018-01-31T10:31:27.255Z,1002.44
2018-01-31T10:32:27.260Z,1002.41
2018-01-31T10:33:27.280Z,1002.36
2018-01-31T10:34:27.294Z,1002.32
2018-01-31T10:35:27.305Z,1002.33
2018-01-31T10:36:27.326Z,1002.24
2018-01-31T10:37:27.341Z,1002.19
2018-01-31T10:38:27.354Z,1002.24
2018-01-31T10:39:27.359Z,1002.24
2018-01-31T10:40:27.371Z,1002.22
2018-01-31T10:41:27.393Z,1002.16
2018-01-31T10:42:27.400Z,1002.09
2018-01-31T10:43:27.426Z,1002.05
2018-01-31T10:44:27.434Z,1002.02
2018-01-31T10:45:27.442Z,1002.03
2018-01-31T10:46:27.463Z,1001.97
2018-01-31T10:47:27.469Z,1002.04
2018-01-31T10:48:27.492Z,1001.95
2018-01-31T10:49:27.502Z,1001.97
2018-01-31T10:50:27.521Z,1001.96
2018-01-31T10:51:27.584Z,1001.97
2018-01-31T10:52:27.559Z,1001.96
2018-01-31T10:53:27.561Z,1001.92
2018-01-31T10:57:28.315Z,1001.85
2018-01-31T10:57:29.244Z,1001.76
2018-01-31T10:58:27.631Z,1001.76
2018-01-31T10:59:27.653Z,1001.68
2018-01-31T11:00:27.662Z,1001.71
2018-01-31T11:01:27.680Z,1001.69
2018-01-31T11:02:27.725Z,1001.67
2018-01-31T11:03:27.711Z,1001.56
2018-01-31T11:04:27.721Z,1001.60
2018-01-31T11:05:27.746Z,1001.55
2018-01-31T11:06:27.748Z,1001.56
2018-01-31T11:07:27.775Z,1001.54
2018-01-31T11:08:27.787Z,1001.55
2018-01-31T11:09:27.800Z,1001.52
2018-01-31T11:10:27.815Z,1001.51
2018-01-31T11:11:27.833Z,1001.45
2018-01-31T11:12:27.841Z,1001.50
2018-01-31T11:13:27.858Z,1001.44
2018-01-31T11:14:27.871Z,1001.39
2018-01-31T11:15:27.896Z,1001.37
2018-01-31T11:16:27.906Z,1001.32
2018-01-31T11:17:27.911Z,1001.29
2018-01-31T11:18:27.940Z,1001.34
2018-01-31T11:19:27.939Z,1001.27
2018-01-31T11:20:27.961Z,1001.18
2018-01-31T11:21:27.978Z,1001.21
2018-01-31T11:22:27.994Z,1001.13
2018-01-31T11:23:28.006Z,1001.10
2018-01-31T11:24:28.027Z,1001.11
2018-01-31T11:25:28.032Z,1001.16
2018-01-31T11:26:28.056Z,1001.12
2018-01-31T11:27:28.064Z,1001.04
2018-01-31T11:28:28.087Z,1001.01
2018-01-31T11:29:28.095Z,1000.95
2018-01-31T11:30:28.118Z,1000.92
2018-01-31T11:31:28.126Z,1000.84
2018-01-31T11:32:28.152Z,1000.92
2018-01-31T11:33:28.202Z,1000.83
2018-01-31T11:34:28.180Z,1000.88
2018-01-31T11:35:28.195Z,1000.80
2018-01-31T11:36:28.205Z,1000.87
2018-01-31T11:37:28.237Z,1000.69
2018-01-31T11:38:28.239Z,1000.77
2018-01-31T11:39:28.262Z,1000.67
2018-01-31T11:40:28.267Z,1000.65
2018-01-31T11:41:28.289Z,1000.70
2018-01-31T11:42:28.312Z,1000.71
2018-01-31T11:43:28.317Z,1000.65
2018-01-31T11:44:28.326Z,1000.62
2018-01-31T11:45:28.352Z,1000.58
2018-01-31T11:46:28.374Z,1000.50
2018-01-31T11:47:28.382Z,1000.43
2018-01-31T11:48:28.388Z,1000.42
2018-01-31T11:49:28.413Z,1000.45
2018-01-31T11:50:28.426Z,1000.48
2018-01-31T11:51:28.440Z,1000.52
2018-01-31T11:52:28.467Z,1000.47
2018-01-31T11:53:28.471Z,1000.49
2018-01-31T11:54:28.495Z,1000.52
2018-01-31T11:55:28.499Z,1000.44
2018-01-31T11:56:28.519Z,1000.44
2018-01-31T11:57:28.546Z,1000.39
2018-01-31T11:58:28.549Z,1000.34
2018-01-31T11:59:28.574Z,1000.26
2018-01-31T12:00:28.602Z,1000.29
2018-01-31T12:01:28.601Z,1000.22
2018-01-31T12:02:28.626Z,1000.21
2018-01-31T12:03:28.630Z,1000.22
2018-01-31T12:04:28.658Z,1000.17
2018-01-31T12:05:28.665Z,1000.16
2018-01-31T12:06:28.685Z,1000.10
2018-01-31T12:07:28.713Z,1000.10
2018-01-31T12:08:28.721Z,1000.07
2018-01-31T12:09:28.736Z,999.99
2018-01-31T12:10:28.746Z,999.95
2018-01-31T12:11:28.767Z,999.86
2018-01-31T12:12:28.792Z,999.88
2018-01-31T12:13:28.799Z,999.84
2018-01-31T12:14:28.818Z,999.78
2018-01-31T12:15:28.835Z,999.82
2018-01-31T12:16:28.851Z,999.82
2018-01-31T12:17:28.883Z,999.81
2018-01-31T12:18:28.882Z,999.72
2018-01-31T12:19:28.900Z,999.71
2018-01-31T12:20:28.914Z,999.68
2018-01-31T12:21:28.934Z,999.64
2018-01-31T12:22:28.953Z,999.63
2018-01-31T12:23:28.967Z,999.62
2018-01-31T12:24:28.988Z,999.59
2018-01-31T12:25:29.007Z,999.62
2018-01-31T12:26:29.016Z,999.53
2018-01-31T12:27:29.035Z,999.49
2018-01-31T12:28:29.055Z,999.47
2018-01-31T12:29:29.069Z,999.39
2018-01-31T12:30:29.083Z,999.34
2018-01-31T12:31:29.109Z,999.32
2018-01-31T12:32:29.130Z,999.31
2018-01-31T12:33:29.141Z,999.37
2018-01-31T12:34:29.156Z,999.36
2018-01-31T12:35:29.165Z,999.32
2018-01-31T12:36:29.187Z,999.24
2018-01-31T12:37:29.200Z,999.20
2018-01-31T12:38:29.218Z,999.22
2018-01-31T12:39:29.244Z,999.17
2018-01-31T12:40:29.256Z,999.12
2018-01-31T12:41:29.270Z,999.16
2018-01-31T12:42:29.294Z,999.16
2018-01-31T12:43:29.299Z,999.13
2018-01-31T12:44:29.323Z,999.11
2018-01-31T12:45:29.357Z,999.03
2018-01-31T12:46:29.353Z,999.13
2018-01-31T12:47:29.378Z,999.03
2018-01-31T12:48:29.389Z,999.00
2018-01-31T12:49:29.404Z,999.00
2018-01-31T12:50:29.428Z,998.96
2018-01-31T12:51:29.450Z,998.96
2018-01-31T12:52:29.454Z,998.90
2018-01-31T12:53:29.481Z,998.95
2018-01-31T12:54:29.489Z,998.87
2018-01-31T12:55:29.513Z,998.90
2018-01-31T12:56:29.533Z,998.83
2018-01-31T12:57:29.540Z,998.80
2018-01-31T12:58:29.561Z,998.78
2018-01-31T12:59:29.579Z,998.80
2018-01-31T13:00:29.587Z,998.67
2018-01-31T13:01:29.613Z,998.66
2018-01-31T13:02:29.635Z,998.65
2018-01-31T13:03:29.646Z,998.62
2018-01-31T13:04:29.667Z,998.59
2018-01-31T13:05:29.685Z,998.58
2018-01-31T13:06:29.699Z,998.57
2018-01-31T13:07:29.720Z,998.59
2018-01-31T13:08:29.739Z,998.56
2018-01-31T13:09:29.751Z,998.48
2018-01-31T13:10:29.768Z,998.54
2018-01-31T13:11:29.789Z,998.55
2018-01-31T13:12:29.799Z,998.52
2018-01-31T13:13:29.828Z,998.55
2018-01-31T13:14:29.843Z,998.51
2018-01-31T13:15:29.849Z,998.51
2018-01-31T13:16:29.871Z,998.49
2018-01-31T13:17:29.895Z,998.49
2018-01-31T13:18:29.900Z,998.42
2018-01-31T13:19:29.922Z,998.42
2018-01-31T13:20:29.947Z,998.43
2018-01-31T13:21:29.949Z,998.34
2018-01-31T13:22:29.978Z,998.35
2018-01-31T13:23:29.991Z,998.29
2018-01-31T13:24:30.004Z,998.29
2018-01-31T13:25:30.027Z,998.27
2018-01-31T13:26:30.033Z,998.25
2018-01-31T13:27:30.059Z,998.27
2018-01-31T13:28:30.080Z,998.24
2018-01-31T13:29:30.085Z,998.19
2018-01-31T13:30:30.120Z,998.18
2018-01-31T13:31:30.125Z,998.18
2018-01-31T13:32:30.135Z,998.08
2018-01-31T13:33:30.161Z,998.01
2018-01-31T13:34:30.168Z,998.05
2018-01-31T13:35:30.193Z,998.04
2018-01-31T13:36:30.213Z,997.97
2018-01-31T13:37:30.225Z,998.02
2018-01-31T13:38:30.246Z,997.92
2018-01-31T13:39:30.261Z,997.94
2018-01-31T13:40:30.270Z,997.96
2018-01-31T13:41:30.296Z,997.92
2018-01-31T13:42:30.304Z,997.87
2018-01-31T13:43:30.329Z,997.87
2018-01-31T13:44:30.345Z,997.86
2018-01-31T13:45:30.353Z,997.79
2018-01-31T13:46:30.378Z,997.81
2018-01-31T13:47:30.398Z,997.76
2018-01-31T13:48:30.405Z,997.79
2018-01-31T13:49:30.430Z,997.73
2018-01-31T13:50:30.432Z,997.70
2018-01-31T13:51:30.458Z,997.68
2018-01-31T13:52:30.486Z,997.65
2018-01-31T13:53:30.488Z,997.65
2018-01-31T13:54:30.507Z,997.67
2018-01-31T13:55:30.521Z,997.66
2018-01-31T13:56:30.543Z,997.61
2018-01-31T13:57:30.562Z,997.59
2018-01-31T13:58:30.570Z,997.57
2018-01-31T13:59:30.588Z,997.56
2018-01-31T14:00:30.598Z,997.49
2018-01-31T14:01:30.622Z,997.52
2018-01-31T14:02:30.657Z,997.49
2018-01-31T14:03:30.653Z,997.52
2018-01-31T14:04:30.677Z,997.47
2018-01-31T14:05:30.696Z,997.48
2018-01-31T14:06:30.709Z,997.45
2018-01-31T14:07:30.721Z,997.45
2018-01-31T14:08:30.729Z,997.42
2018-01-31T14:09:30.755Z,997.39
2018-01-31T14:10:30.776Z,997.35
2018-01-31T14:11:30.786Z,997.36